createdAt,value
2019-05-15T00:04:59.280Z,102181.20
2019-05-15T00:10:23.024Z,102175.72
2019-05-15T00:15:47.989Z,102170.87
2019-05-15T00:21:10.743Z,102169.81
2019-05-15T00:26:33.805Z,102166.30
2019-05-15T00:31:58.908Z,102167.69
2019-05-15T00:37:21.343Z,102169.73
2019-05-15T00:42:44.781Z,102161.70
2019-05-15T00:48:09.085Z,102164.34
2019-05-15T00:53:32.406Z,102164.02
2019-05-15T00:58:55.818Z,102167.45
2019-05-15T01:04:18.924Z,102167.38
2019-05-15T01:09:42.346Z,102165.16
2019-05-15T01:15:09.679Z,102155.34
2019-05-15T01:20:32.918Z,102154.27
2019-05-15T01:25:58.715Z,102145.83
2019-05-15T01:31:21.284Z,102136.34
2019-05-15T01:36:44.600Z,102136.58
2019-05-15T01:42:08.403Z,102135.22
2019-05-15T01:47:32.119Z,102136.58
2019-05-15T01:52:55.223Z,102127.82
2019-05-15T01:58:19.058Z,102121.90
2019-05-15T02:03:42.321Z,102120.11
2019-05-15T02:09:08.290Z,102118.75
2019-05-15T02:14:31.931Z,102116.45
2019-05-15T02:19:55.468Z,102103.61
2019-05-15T02:25:18.612Z,102103.05
2019-05-15T02:30:41.733Z,102102.84
2019-05-15T02:36:04.494Z,102102.67
2019-05-15T02:41:29.870Z,102093.88
2019-05-15T02:46:53.539Z,102094.59
2019-05-15T02:52:19.638Z,102095.84
2019-05-15T02:57:41.390Z,102099.27
2019-05-15T03:03:04.919Z,102099.61
2019-05-15T03:08:29.821Z,102104.95
2019-05-15T03:13:53.836Z,102093.48
2019-05-15T03:19:19.242Z,102097.98
2019-05-15T03:24:41.931Z,102099.77
2019-05-15T03:30:12.211Z,102097.05
2019-05-15T03:35:33.017Z,102092.93
2019-05-15T03:40:59.313Z,102099.71
2019-05-15T03:46:20.627Z,102092.84
2019-05-15T03:51:45.923Z,102090.78
2019-05-15T03:57:09.868Z,102097.84
2019-05-15T04:02:33.429Z,102092.64
2019-05-15T04:07:59.528Z,102092.30
2019-05-15T04:13:21.434Z,102091.98
2019-05-15T04:18:44.123Z,102097.55
2019-05-15T04:24:09.520Z,102096.37
2019-05-15T04:29:33.352Z,102094.17
2019-05-15T04:34:59.372Z,102091.72
2019-05-15T04:40:22.064Z,102083.76
2019-05-15T04:45:45.315Z,102077.14
2019-05-15T04:51:09.741Z,102078.36
2019-05-15T04:56:32.823Z,102079.44
2019-05-15T05:02:12.931Z,102075.35
2019-05-15T05:07:21.479Z,102069.16
2019-05-15T05:12:44.898Z,102071.81
2019-05-15T05:18:09.646Z,102069.00
2019-05-15T05:23:31.968Z,102066.33
2019-05-15T05:28:55.229Z,102072.75
2019-05-15T05:34:19.358Z,102072.81
2019-05-15T05:39:43.017Z,102072.52
2019-05-15T05:45:09.219Z,102071.95
2019-05-15T05:50:38.503Z,102080.39
2019-05-15T05:56:02.080Z,102078.13
2019-05-15T06:01:28.128Z,102071.53
2019-05-15T06:07:06.051Z,102073.31
2019-05-15T06:12:15.083Z,102066.04
2019-05-15T06:17:39.326Z,102071.33
2019-05-15T06:23:02.880Z,102070.84
2019-05-15T06:28:28.666Z,102065.26
2019-05-15T06:33:50.342Z,102065.35
2019-05-15T06:39:13.505Z,102061.27
2019-05-15T06:44:38.810Z,102052.00
2019-05-15T06:50:02.867Z,102050.40
2019-05-15T06:55:26.311Z,102049.69
2019-05-15T07:00:49.884Z,102047.53
2019-05-15T07:06:13.201Z,102045.20
2019-05-15T07:11:38.773Z,102034.39
2019-05-15T07:17:01.652Z,102036.30
2019-05-15T07:22:25.276Z,102031.70
2019-05-15T07:27:48.532Z,102027.81
2019-05-15T07:33:11.402Z,102023.21
2019-05-15T07:38:34.745Z,102019.09
2019-05-15T07:43:58.582Z,102015.31
2019-05-15T07:49:22.510Z,102015.81
2019-05-15T07:54:45.769Z,102014.65
2019-05-15T08:00:18.748Z,102017.25
2019-05-15T08:05:54.941Z,102028.64
2019-05-15T08:11:17.574Z,102024.56
2019-05-15T08:16:32.099Z,102030.14
2019-05-15T08:21:55.371Z,102028.66
2019-05-15T08:27:19.203Z,102021.08
2019-05-15T08:32:42.826Z,102025.08
2019-05-15T08:38:08.657Z,102021.17
2019-05-15T08:43:31.555Z,102008.50
2019-05-15T08:48:54.941Z,101997.78
2019-05-15T08:54:18.675Z,101995.05
2019-05-15T08:59:42.423Z,101988.70
2019-05-15T09:05:08.670Z,101978.41
2019-05-15T09:10:32.467Z,101984.52
2019-05-15T09:15:58.699Z,101969.03
2019-05-15T09:21:21.055Z,101963.98
2019-05-15T09:26:44.663Z,101962.89
2019-05-15T09:32:09.354Z,101960.94
2019-05-15T09:37:33.741Z,101945.50
2019-05-15T09:42:57.922Z,101946.68
2019-05-15T09:48:21.039Z,101941.92
2019-05-15T09:53:44.288Z,101937.36
2019-05-15T09:59:08.953Z,101932.89
2019-05-15T10:04:32.964Z,101921.86
2019-05-15T10:09:56.502Z,101921.09
2019-05-15T10:15:20.689Z,101912.96
2019-05-15T10:20:43.986Z,101909.06
2019-05-15T10:26:13.558Z,101897.95
2019-05-15T10:31:32.798Z,101900.34
2019-05-15T10:36:58.763Z,101894.58
2019-05-15T10:42:21.333Z,101889.53
2019-05-15T10:47:45.134Z,101885.59
2019-05-15T10:53:11.305Z,101880.75
2019-05-15T10:58:34.087Z,101870.12
2019-05-15T11:03:58.945Z,101878.34
2019-05-15T11:09:22.392Z,101860.86
2019-05-15T11:14:46.260Z,101847.39
2019-05-15T11:20:10.268Z,101850.55
2019-05-15T11:25:33.693Z,101837.23
2019-05-15T11:30:59.181Z,101838.91
2019-05-15T11:36:22.594Z,101842.53
2019-05-15T11:41:49.011Z,101844.23
2019-05-15T11:47:10.683Z,101827.27
2019-05-15T11:52:36.633Z,101824.14
2019-05-15T11:57:59.415Z,101817.29
2019-05-15T12:03:24.973Z,101822.04
2019-05-15T12:08:47.927Z,101818.27
2019-05-15T12:14:24.937Z,101805.85
2019-05-15T12:19:54.860Z,101798.40
2019-05-15T12:25:13.276Z,101793.92
2019-05-15T12:30:39.689Z,101785.11
2019-05-15T12:36:01.196Z,101791.95
2019-05-15T13:03:03.470Z,101775.83
2019-05-15T13:08:29.131Z,101783.87
2019-05-15T13:13:51.607Z,101782.13
2019-05-15T13:19:15.053Z,101780.78
2019-05-15T13:24:38.700Z,101768.76
2019-05-15T13:30:01.906Z,101766.06
2019-05-15T13:35:25.259Z,101770.52
2019-05-15T13:40:48.931Z,101773.66
2019-05-15T13:46:12.660Z,101778.80
2019-05-15T13:51:38.190Z,101775.67
2019-05-15T13:57:00.377Z,101760.13
2019-05-15T14:02:24.056Z,101753.41
2019-05-15T14:07:53.393Z,101751.38
2019-05-15T14:13:14.660Z,101748.64
2019-05-15T14:18:39.023Z,101738.91
2019-05-15T14:24:02.563Z,101735.16
2019-05-15T14:29:28.956Z,101731.74
2019-05-15T14:34:51.249Z,101727.72
2019-05-15T14:40:14.329Z,101709.34
2019-05-15T14:45:38.912Z,101699.81
2019-05-15T14:51:02.041Z,101694.95
2019-05-15T14:56:25.338Z,101695.32
2019-05-15T15:01:48.853Z,101690.75
2019-05-15T15:07:12.866Z,101687.61
2019-05-15T15:12:39.106Z,101679.11
2019-05-15T15:18:01.209Z,101675.19
2019-05-15T15:23:24.359Z,101677.16
2019-05-15T15:29:04.229Z,101669.55
2019-05-15T15:34:28.327Z,101679.12
2019-05-15T15:39:52.019Z,101671.69
2019-05-15T15:45:15.765Z,101672.30
2019-05-15T15:50:39.404Z,101668.94
2019-05-15T15:56:02.693Z,101666.83
2019-05-15T16:01:28.496Z,101666.73
2019-05-15T16:06:50.857Z,101661.25
2019-05-15T16:12:13.711Z,101654.77
2019-05-15T16:17:38.431Z,101642.06
2019-05-15T16:23:01.604Z,101648.73
2019-05-15T16:28:24.534Z,101655.70
2019-05-15T16:33:48.137Z,101658.62
2019-05-15T16:39:12.107Z,101656.34
2019-05-15T16:44:35.097Z,101650.11
2019-05-15T16:49:58.800Z,101656.50
2019-05-15T16:55:21.832Z,101655.59
2019-05-15T17:00:44.924Z,101655.62
2019-05-15T17:06:09.473Z,101656.12
2019-05-15T17:11:33.128Z,101650.33
2019-05-15T17:16:58.697Z,101654.69
2019-05-15T17:22:21.835Z,101657.88
2019-05-15T17:27:44.433Z,101671.23
2019-05-15T17:33:08.688Z,101678.81
2019-05-15T17:38:31.251Z,101674.83
2019-05-15T17:43:55.190Z,101673.94
2019-05-15T17:49:18.396Z,101682.08
2019-05-15T17:54:44.487Z,101676.33
2019-05-15T18:00:12.517Z,101681.65
2019-05-15T18:05:34.516Z,101685.69
2019-05-15T18:10:58.697Z,101679.27
2019-05-15T18:16:22.576Z,101678.27
2019-05-15T18:21:46.299Z,101671.59
2019-05-15T18:27:09.627Z,101660.89
2019-05-15T18:32:33.630Z,101668.69
2019-05-15T18:37:58.875Z,101663.58
2019-05-15T18:43:21.336Z,101657.07
2019-05-15T18:48:44.929Z,101661.48
2019-05-15T18:54:08.613Z,101665.27
2019-05-15T18:59:31.890Z,101655.70
2019-05-15T19:04:58.746Z,101656.63
2019-05-15T19:10:20.270Z,101654.58
2019-05-15T19:15:43.650Z,101649.88
2019-05-15T19:21:07.984Z,101641.66
2019-05-15T19:26:32.230Z,101642.25
2019-05-15T19:31:55.189Z,101649.00
2019-05-15T19:37:18.825Z,101639.53
2019-05-15T19:42:42.149Z,101643.87
2019-05-15T19:48:05.304Z,101641.77
2019-05-15T19:53:28.914Z,101629.81
2019-05-15T19:58:52.726Z,101629.79
2019-05-15T20:04:18.533Z,101626.31
2019-05-15T20:09:42.293Z,101610.72
2019-05-15T20:15:09.186Z,101617.80
2019-05-15T20:20:33.069Z,101613.52
2019-05-15T20:25:57.672Z,101607.02
2019-05-15T20:31:20.782Z,101607.27
2019-05-15T20:36:43.899Z,101593.33
2019-05-15T20:42:08.817Z,101588.52
2019-05-15T20:47:32.799Z,101584.33
2019-05-15T20:52:58.904Z,101586.79
2019-05-15T20:58:22.138Z,101581.86
2019-05-15T21:03:50.474Z,101577.37
2019-05-15T21:09:11.017Z,101564.05
2019-05-15T21:14:39.812Z,101555.89
2019-05-15T21:20:01.109Z,101558.20
2019-05-15T21:25:25.261Z,101557.30
2019-05-15T21:30:49.572Z,101552.00
2019-05-15T21:36:12.942Z,101551.73
2019-05-15T21:41:38.529Z,101547.03
2019-05-15T21:47:01.137Z,101536.08
2019-05-15T21:52:24.525Z,101526.56
2019-05-15T21:57:47.737Z,101527.08
2019-05-15T22:03:10.845Z,101515.36
2019-05-15T22:08:34.235Z,101511.70
2019-05-15T22:13:58.745Z,101516.70
2019-05-15T22:19:21.726Z,101503.33
2019-05-15T22:24:44.412Z,101500.73
2019-05-15T22:30:08.709Z,101495.45
2019-05-15T22:35:32.651Z,101491.50
2019-05-15T22:40:56.218Z,101486.20
2019-05-15T22:46:19.944Z,101468.41
2019-05-15T22:51:43.763Z,101467.46
2019-05-15T22:57:07.039Z,101458.02
2019-05-15T23:02:30.563Z,101452.03
2019-05-15T23:07:54.009Z,101448.14
2019-05-15T23:13:17.848Z,101443.59
2019-05-15T23:18:40.781Z,101436.83
2019-05-15T23:24:04.439Z,101437.25
2019-05-15T23:29:27.528Z,101418.48
2019-05-15T23:34:51.286Z,101415.57
2019-05-15T23:40:14.658Z,101413.36
2019-05-15T23:45:38.979Z,101405.71
2019-05-15T23:51:02.550Z,101401.14
2019-05-15T23:56:28.854Z,101393.23
